Bituma I — CNA4977 — position and weather

sailwx.info

Track history (hours):
 
Tides and Currents Weather Stations Pressure Air Temp Water Temp Dewpoint Dewpoint Depression Visibility Wind Speed Wind Dir Waves Ship Positions

Bituma I

Last reported at 2018-Jun-22 15:52 UTC. Time now 2018-Jun-25 00:42 UTC.
Position N 36°55' E 023°35'.

Length 103 m; draft 6.1 m.

Type: Tanker. MMSI: 242187100.

Date/timePositionNaut miles runAvg speedWind from/ knotsBaromVisibWave heightAir tempDewpointWater temp
2018-Jun-22 15:52N 36°55' E 023°35'3 9.2
2018-Jun-22 15:30N 36°58' E 023°37'9 9.2
2018-Jun-22 14:33N 37°07' E 023°40'1 9.4
2018-Jun-22 14:29N 37°07' E 023°41'4 9.2
2018-Jun-22 14:00N 37°11' E 023°42'5 9.4
2018-Jun-22 13:30N 37°16' E 023°42'5 9.5
2018-Jun-22 13:00N 37°21' E 023°42'4 8.5
2018-Jun-22 12:31N 37°25' E 023°43'4 8.2
2018-Jun-22 12:00N 37°29' E 023°43'4 8.1
2018-Jun-22 11:30N 37°33' E 023°43'4 8.1
2018-Jun-22 11:01N 37°37' E 023°43'4 8.5
2018-Jun-22 10:30N 37°41' E 023°41'4 8.7
2018-Jun-22 10:01N 37°45' E 023°39'4 8.9
2018-Jun-22 09:30N 37°49' E 023°37'4 8.6
2018-Jun-22 09:00N 37°54' E 023°36'4 7.3
2018-Jun-22 08:31N 37°57' E 023°35'3 6.8
2018-Jun-22 08:01N 38°00' E 023°33'2 4.8
2018-Jun-22 07:30N 38°02' E 023°36'0 0.0
2018-Jun-22 07:00N 38°02' E 023°36'0 0.0
2018-Jun-22 06:30N 38°02' E 023°36'0 0.0
2018-Jun-22 05:36N 38°02' E 023°36'0 0.0
2018-Jun-22 05:30N 38°02' E 023°36'0 0.0
2018-Jun-22 04:12N 38°02' E 023°36'0 0.0
2018-Jun-22 04:00N 38°02' E 023°36'0 0.0
2018-Jun-22 03:30N 38°02' E 023°36'0 0.0
2018-Jun-22 03:00N 38°02' E 023°36'0 0.0
2018-Jun-22 02:30N 38°02' E 023°36'0 0.0
2018-Jun-22 02:00N 38°02' E 023°36'0 0.0
2018-Jun-22 01:30N 38°02' E 023°36'0 0.0
2018-Jun-22 01:00N 38°02' E 023°36'0 0.0
2018-Jun-22 00:27N 38°02' E 023°36'0 0.0
2018-Jun-22 00:00N 38°02' E 023°36'0 0.0
2018-Jun-21 23:30N 38°02' E 023°36'0 0.0
2018-Jun-21 22:57N 38°02' E 023°36'0 0.0
2018-Jun-21 22:30N 38°02' E 023°36'0 0.0
2018-Jun-21 21:54N 38°02' E 023°36'0 0.0
2018-Jun-21 21:30N 38°02' E 023°36'0 0.0
2018-Jun-21 20:54N 38°02' E 023°36'0 0.0
2018-Jun-21 20:30N 38°02' E 023°36'0 0.0
2018-Jun-21 20:00N 38°02' E 023°36'0 0.0
2018-Jun-21 19:30N 38°02' E 023°36'0 0.0
2018-Jun-21 19:00N 38°02' E 023°36'0 0.0
2018-Jun-21 18:30N 38°02' E 023°36'0 0.0
2018-Jun-21 18:00N 38°02' E 023°36'0 0.0
2018-Jun-21 17:30N 38°02' E 023°36'0 0.0
2018-Jun-21 17:00N 38°02' E 023°36'0 0.0
2018-Jun-21 16:30N 38°02' E 023°36'0 0.0
2018-Jun-21 16:00N 38°02' E 023°36'0 0.0
2018-Jun-21 15:30N 38°02' E 023°36'0 0.0
2018-Jun-21 14:48N 38°02' E 023°36'0 0.0
2018-Jun-21 14:30N 38°02' E 023°36'0 0.0
2018-Jun-21 14:00N 38°02' E 023°36'0 0.0
2018-Jun-21 13:30N 38°02' E 023°36'0 0.0
2018-Jun-21 13:00N 38°02' E 023°36'0 0.0
2018-Jun-21 12:30N 38°02' E 023°36'0 0.0
2018-Jun-21 12:00N 38°02' E 023°36'0 0.0
2018-Jun-21 11:30N 38°02' E 023°36'0 0.0
2018-Jun-21 11:00N 38°02' E 023°36'0 0.0
2018-Jun-21 10:24N 38°02' E 023°36'0 0.0
2018-Jun-21 10:00N 38°02' E 023°36'0 0.0
2018-Jun-21 09:30N 38°02' E 023°36'0 0.0
2018-Jun-21 08:48N 38°02' E 023°36'0 0.0
2018-Jun-21 08:30N 38°02' E 023°36'0 0.0
2018-Jun-21 07:12N 38°02' E 023°36'0 0.0
2018-Jun-21 06:54N 38°02' E 023°36'0 0.0
2018-Jun-21 06:30N 38°02' E 023°36'0 0.0
2018-Jun-21 06:00N 38°02' E 023°36'0 0.0
2018-Jun-21 05:30N 38°02' E 023°36'0 0.0
2018-Jun-21 05:00N 38°02' E 023°36'0 0.0
2018-Jun-21 04:30N 38°02' E 023°36'0 0.0
2018-Jun-21 03:57N 38°02' E 023°36'0 0.0
2018-Jun-21 03:27N 38°02' E 023°36'0 0.0
2018-Jun-21 02:18N 38°02' E 023°36'0 0.0
2018-Jun-21 01:54N 38°02' E 023°36'0 0.0
2018-Jun-21 01:30N 38°02' E 023°36'0 0.0
2018-Jun-21 00:54N 38°02' E 023°36'0 0.0
2018-Jun-21 00:30N 38°02' E 023°36'0 0.0
2018-Jun-21 00:00N 38°02' E 023°36'0 0.0
2018-Jun-20 23:15N 38°02' E 023°36'0 0.0
2018-Jun-20 23:00N 38°02' E 023°36'0 0.0
2018-Jun-20 22:24N 38°02' E 023°36'0 0.0
2018-Jun-20 22:00N 38°02' E 023°36'0 0.0
2018-Jun-20 21:30N 38°02' E 023°36'0 0.0
2018-Jun-20 21:00N 38°02' E 023°36'0 0.0
2018-Jun-20 20:30N 38°02' E 023°36'0 0.0
2018-Jun-20 20:00N 38°02' E 023°36'0 0.0
2018-Jun-20 19:30N 38°02' E 023°36'1 2.0
2018-Jun-20 19:01N 38°02' E 023°35'2 4.0
2018-Jun-20 18:28N 38°01' E 023°32'0 0.0
2018-Jun-20 17:58N 38°01' E 023°32'0 0.1
2018-Jun-20 17:28N 38°01' E 023°32'0 0.0
2018-Jun-20 16:58N 38°01' E 023°32'0 0.0
2018-Jun-20 16:28N 38°01' E 023°32'0 0.0
2018-Jun-20 15:58N 38°01' E 023°32'0 0.0
2018-Jun-20 15:28N 38°01' E 023°32'0 0.0
2018-Jun-20 14:58N 38°01' E 023°32'0 0.0
2018-Jun-20 14:28N 38°01' E 023°32'0 0.0
2018-Jun-20 13:58N 38°01' E 023°32'0 0.1
2018-Jun-20 13:28N 38°01' E 023°32'0 0.0
2018-Jun-20 12:58N 38°01' E 023°32'0 0.0
2018-Jun-20 12:28N 38°01' E 023°32'0 0.0
2018-Jun-20 11:58N 38°01' E 023°32'0 0.0
2018-Jun-20 11:28N 38°01' E 023°32'0 0.0
2018-Jun-20 10:58N 38°01' E 023°32'0 0.1
2018-Jun-20 10:28N 38°01' E 023°32'0 0.0
2018-Jun-20 09:58N 38°01' E 023°32'0 0.0
2018-Jun-20 09:28N 38°01' E 023°32'0 0.1
2018-Jun-20 08:58N 38°01' E 023°32'0 0.0
2018-Jun-20 08:28N 38°01' E 023°32'0 0.0
2018-Jun-20 07:58N 38°01' E 023°32'0 0.0
2018-Jun-20 07:28N 38°01' E 023°32'0 0.0
2018-Jun-20 06:58N 38°01' E 023°32'0 0.0
2018-Jun-20 06:28N 38°01' E 023°32'0 0.0
2018-Jun-20 05:58N 38°01' E 023°32'0 0.0
2018-Jun-20 05:28N 38°01' E 023°32'0 0.0
2018-Jun-20 04:58N 38°01' E 023°32'0 0.0
2018-Jun-20 04:28N 38°01' E 023°32'0 0.0
2018-Jun-20 03:58N 38°01' E 023°32'0 0.0
2018-Jun-20 03:28N 38°01' E 023°32'0 0.0
2018-Jun-20 02:58N 38°01' E 023°32'0 0.0
2018-Jun-20 02:28N 38°01' E 023°32'0 0.0
2018-Jun-20 01:58N 38°01' E 023°32'0 0.0
2018-Jun-20 01:28N 38°01' E 023°32'0 0.0
2018-Jun-20 00:58N 38°01' E 023°32'0 0.0
2018-Jun-20 00:28N 38°01' E 023°32'0 0.0
2018-Jun-19 23:58N 38°01' E 023°32'0 0.0
2018-Jun-19 23:28N 38°01' E 023°32'0 0.0
2018-Jun-19 22:58N 38°01' E 023°32'0 0.0
2018-Jun-19 22:28N 38°01' E 023°32'0 0.0
2018-Jun-19 21:58N 38°01' E 023°32'0 0.0
2018-Jun-19 21:28N 38°01' E 023°32'0 0.0
2018-Jun-19 20:58N 38°01' E 023°32'0 0.0
2018-Jun-19 20:28N 38°01' E 023°32'0 0.0
2018-Jun-19 19:58N 38°01' E 023°32'0 0.0
2018-Jun-19 19:28N 38°01' E 023°32'0 0.0
2018-Jun-19 18:58N 38°01' E 023°32'0 0.0
2018-Jun-19 18:28N 38°01' E 023°32'0 0.0
2018-Jun-19 17:58N 38°01' E 023°32'0 0.0
2018-Jun-19 17:28N 38°01' E 023°32'0 0.0
2018-Jun-19 16:58N 38°01' E 023°32'0 0.0
2018-Jun-19 16:28N 38°01' E 023°32'0 0.0
2018-Jun-19 15:58N 38°01' E 023°32'0 0.1
2018-Jun-19 15:28N 38°01' E 023°32'0 0.1
2018-Jun-19 14:58N 38°01' E 023°32'0 0.0
2018-Jun-19 14:28N 38°01' E 023°32'0 0.0
2018-Jun-19 13:58N 38°01' E 023°32'0 0.0
2018-Jun-19 13:28N 38°01' E 023°32'0 0.0
2018-Jun-19 12:58N 38°01' E 023°32'0 0.0
2018-Jun-19 12:28N 38°01' E 023°32'0 0.0
2018-Jun-19 11:58N 38°01' E 023°32'0 0.0
2018-Jun-19 11:28N 38°01' E 023°32'0 0.0
2018-Jun-19 10:58N 38°01' E 023°32'0 0.0
2018-Jun-19 10:28N 38°01' E 023°32'0 0.0
2018-Jun-19 09:58N 38°01' E 023°32'0 0.0
2018-Jun-19 09:28N 38°01' E 023°32'0 0.0
2018-Jun-19 08:58N 38°01' E 023°32'0 0.0
2018-Jun-19 08:28N 38°01' E 023°32'0 0.0
2018-Jun-19 07:58N 38°01' E 023°32'0 0.0
2018-Jun-19 07:28N 38°01' E 023°32'0 0.0
2018-Jun-19 06:58N 38°01' E 023°32'0 0.0
2018-Jun-19 06:28N 38°01' E 023°32'0 0.0
2018-Jun-19 05:58N 38°01' E 023°32'0 0.0
2018-Jun-19 05:28N 38°01' E 023°32'0 0.0
2018-Jun-19 04:58N 38°01' E 023°32'0 0.0
2018-Jun-19 04:28N 38°01' E 023°32'0 0.0
2018-Jun-19 03:58N 38°01' E 023°32'0 0.0
2018-Jun-19 03:28N 38°01' E 023°32'0 0.0
2018-Jun-19 02:58N 38°01' E 023°32'0 0.0
2018-Jun-19 02:28N 38°01' E 023°32'0 0.0
2018-Jun-19 01:58N 38°01' E 023°32'0 0.1
2018-Jun-19 01:28N 38°01' E 023°32'0 0.0
2018-Jun-19 00:58N 38°01' E 023°32'0 0.0
2018-Jun-19 00:28N 38°01' E 023°32'0 0.0
2018-Jun-18 23:58N 38°01' E 023°32'0 0.0
2018-Jun-18 23:28N 38°01' E 023°32'0 0.0
2018-Jun-18 22:58N 38°01' E 023°32'0 0.1
2018-Jun-18 22:28N 38°01' E 023°32'0 0.0
2018-Jun-18 21:58N 38°01' E 023°32'0 0.0
2018-Jun-18 21:28N 38°01' E 023°32'0 0.0
2018-Jun-18 20:58N 38°01' E 023°32'0 0.0
2018-Jun-18 20:28N 38°01' E 023°32'0 0.0
2018-Jun-18 19:58N 38°01' E 023°32'0 0.0
2018-Jun-18 19:28N 38°01' E 023°32'0 0.0
2018-Jun-18 18:58N 38°01' E 023°32'0 0.0
2018-Jun-18 18:28N 38°01' E 023°32'0 0.0
2018-Jun-18 17:58N 38°01' E 023°32'0 0.0
2018-Jun-18 17:28N 38°01' E 023°32'0 0.0
2018-Jun-18 16:58N 38°01' E 023°32'0 0.0
2018-Jun-18 16:28N 38°01' E 023°32'0 0.0
2018-Jun-18 15:58N 38°01' E 023°32'0 0.0
2018-Jun-18 15:28N 38°01' E 023°32'0 0.0
2018-Jun-18 14:58N 38°01' E 023°32'0 0.1
2018-Jun-18 14:28N 38°01' E 023°32'0 0.1
2018-Jun-18 13:58N 38°01' E 023°32'0 0.0
2018-Jun-18 13:28N 38°01' E 023°32'0 0.0
2018-Jun-18 12:58N 38°01' E 023°32'0 0.2
2018-Jun-18 12:28N 38°01' E 023°32'0 0.0
2018-Jun-18 11:58N 38°01' E 023°32'0 0.0
2018-Jun-18 11:25N 38°01' E 023°32'0 0.0
2018-Jun-18 10:58N 38°01' E 023°32'0 0.1
2018-Jun-18 10:28N 38°01' E 023°32'0 0.1
2018-Jun-18 09:58N 38°01' E 023°32'0 0.3
2018-Jun-18 09:30N 38°01' E 023°32'4 7.5
2018-Jun-18 09:00N 37°58' E 023°33'4 8.6
2018-Jun-18 08:30N 37°54' E 023°37'3 6.7
2018-Jun-18 08:00N 37°51' E 023°39'5 9.1
2018-Jun-18 07:30N 37°47' E 023°41'5 9.3
2018-Jun-18 07:00N 37°43' E 023°44'6 9.3
2018-Jun-18 06:20N 37°38' E 023°48'  
2018-Jun-13 20:05N 37°05' E 002°44'110.8
2018-Jun-13 20:00N 37°05' E 002°43'6811.4
2018-Jun-13 14:01N 36°50' E 001°19'011.7
2018-Jun-13 14:00N 36°50' E 001°19'1411.7
2018-Jun-13 12:47N 36°47' E 001°01'7611.2
2018-Jun-13 06:03N 36°32' W 000°31'710.7
2018-Jun-13 05:27N 36°30' W 000°39'511.3
2018-Jun-13 04:59N 36°29' W 000°45'  
Track history (hours):
 
Tides and Currents Weather Stations Pressure Air Temp Water Temp Dewpoint Dewpoint Depression Visibility Wind Speed Wind Dir Waves Ship Positions

Bituma I

Last reported at 2018-Jun-22 15:52 UTC. Time now 2018-Jun-25 00:42 UTC.
Position N 36°55' E 023°35'.

Length 103 m; draft 6.1 m.

Type: Tanker. MMSI: 242187100.

Date/timePositionNaut miles runAvg speedWind from/ knotsBaromVisibWave heightAir tempDewpointWater temp
2018-Jun-22 15:52N 36°55' E 023°35'3 9.2
2018-Jun-22 15:30N 36°58' E 023°37'9 9.2
2018-Jun-22 14:33N 37°07' E 023°40'1 9.4
2018-Jun-22 14:29N 37°07' E 023°41'4 9.2
2018-Jun-22 14:00N 37°11' E 023°42'5 9.4
2018-Jun-22 13:30N 37°16' E 023°42'5 9.5
2018-Jun-22 13:00N 37°21' E 023°42'4 8.5
2018-Jun-22 12:31N 37°25' E 023°43'4 8.2
2018-Jun-22 12:00N 37°29' E 023°43'4 8.1
2018-Jun-22 11:30N 37°33' E 023°43'4 8.1
2018-Jun-22 11:01N 37°37' E 023°43'4 8.5
2018-Jun-22 10:30N 37°41' E 023°41'4 8.7
2018-Jun-22 10:01N 37°45' E 023°39'4 8.9
2018-Jun-22 09:30N 37°49' E 023°37'4 8.6
2018-Jun-22 09:00N 37°54' E 023°36'4 7.3
2018-Jun-22 08:31N 37°57' E 023°35'3 6.8
2018-Jun-22 08:01N 38°00' E 023°33'2 4.8
2018-Jun-22 07:30N 38°02' E 023°36'0 0.0
2018-Jun-22 07:00N 38°02' E 023°36'0 0.0
2018-Jun-22 06:30N 38°02' E 023°36'0 0.0
2018-Jun-22 05:36N 38°02' E 023°36'0 0.0
2018-Jun-22 05:30N 38°02' E 023°36'0 0.0
2018-Jun-22 04:12N 38°02' E 023°36'0 0.0
2018-Jun-22 04:00N 38°02' E 023°36'0 0.0
2018-Jun-22 03:30N 38°02' E 023°36'0 0.0
2018-Jun-22 03:00N 38°02' E 023°36'0 0.0
2018-Jun-22 02:30N 38°02' E 023°36'0 0.0
2018-Jun-22 02:00N 38°02' E 023°36'0 0.0
2018-Jun-22 01:30N 38°02' E 023°36'0 0.0
2018-Jun-22 01:00N 38°02' E 023°36'0 0.0
2018-Jun-22 00:27N 38°02' E 023°36'0 0.0
2018-Jun-22 00:00N 38°02' E 023°36'0 0.0
2018-Jun-21 23:30N 38°02' E 023°36'0 0.0
2018-Jun-21 22:57N 38°02' E 023°36'0 0.0
2018-Jun-21 22:30N 38°02' E 023°36'0 0.0
2018-Jun-21 21:54N 38°02' E 023°36'0 0.0
2018-Jun-21 21:30N 38°02' E 023°36'0 0.0
2018-Jun-21 20:54N 38°02' E 023°36'0 0.0
2018-Jun-21 20:30N 38°02' E 023°36'0 0.0
2018-Jun-21 20:00N 38°02' E 023°36'0 0.0
2018-Jun-21 19:30N 38°02' E 023°36'0 0.0
2018-Jun-21 19:00N 38°02' E 023°36'0 0.0
2018-Jun-21 18:30N 38°02' E 023°36'0 0.0
2018-Jun-21 18:00N 38°02' E 023°36'0 0.0
2018-Jun-21 17:30N 38°02' E 023°36'0 0.0
2018-Jun-21 17:00N 38°02' E 023°36'0 0.0
2018-Jun-21 16:30N 38°02' E 023°36'0 0.0
2018-Jun-21 16:00N 38°02' E 023°36'0 0.0
2018-Jun-21 15:30N 38°02' E 023°36'0 0.0
2018-Jun-21 14:48N 38°02' E 023°36'0 0.0
2018-Jun-21 14:30N 38°02' E 023°36'0 0.0
2018-Jun-21 14:00N 38°02' E 023°36'0 0.0
2018-Jun-21 13:30N 38°02' E 023°36'0 0.0
2018-Jun-21 13:00N 38°02' E 023°36'0 0.0
2018-Jun-21 12:30N 38°02' E 023°36'0 0.0
2018-Jun-21 12:00N 38°02' E 023°36'0 0.0
2018-Jun-21 11:30N 38°02' E 023°36'0 0.0
2018-Jun-21 11:00N 38°02' E 023°36'0 0.0
2018-Jun-21 10:24N 38°02' E 023°36'0 0.0
2018-Jun-21 10:00N 38°02' E 023°36'0 0.0
2018-Jun-21 09:30N 38°02' E 023°36'0 0.0
2018-Jun-21 08:48N 38°02' E 023°36'0 0.0
2018-Jun-21 08:30N 38°02' E 023°36'0 0.0
2018-Jun-21 07:12N 38°02' E 023°36'0 0.0
2018-Jun-21 06:54N 38°02' E 023°36'0 0.0
2018-Jun-21 06:30N 38°02' E 023°36'0 0.0
2018-Jun-21 06:00N 38°02' E 023°36'0 0.0
2018-Jun-21 05:30N 38°02' E 023°36'0 0.0
2018-Jun-21 05:00N 38°02' E 023°36'0 0.0
2018-Jun-21 04:30N 38°02' E 023°36'0 0.0
2018-Jun-21 03:57N 38°02' E 023°36'0 0.0
2018-Jun-21 03:27N 38°02' E 023°36'0 0.0
2018-Jun-21 02:18N 38°02' E 023°36'0 0.0
2018-Jun-21 01:54N 38°02' E 023°36'0 0.0
2018-Jun-21 01:30N 38°02' E 023°36'0 0.0
2018-Jun-21 00:54N 38°02' E 023°36'0 0.0
2018-Jun-21 00:30N 38°02' E 023°36'0 0.0
2018-Jun-21 00:00N 38°02' E 023°36'0 0.0
2018-Jun-20 23:15N 38°02' E 023°36'0 0.0
2018-Jun-20 23:00N 38°02' E 023°36'0 0.0
2018-Jun-20 22:24N 38°02' E 023°36'0 0.0
2018-Jun-20 22:00N 38°02' E 023°36'0 0.0
2018-Jun-20 21:30N 38°02' E 023°36'0 0.0
2018-Jun-20 21:00N 38°02' E 023°36'0 0.0
2018-Jun-20 20:30N 38°02' E 023°36'0 0.0
2018-Jun-20 20:00N 38°02' E 023°36'0 0.0
2018-Jun-20 19:30N 38°02' E 023°36'1 2.0
2018-Jun-20 19:01N 38°02' E 023°35'2 4.0
2018-Jun-20 18:28N 38°01' E 023°32'0 0.0
2018-Jun-20 17:58N 38°01' E 023°32'0 0.1
2018-Jun-20 17:28N 38°01' E 023°32'0 0.0
2018-Jun-20 16:58N 38°01' E 023°32'0 0.0
2018-Jun-20 16:28N 38°01' E 023°32'0 0.0
2018-Jun-20 15:58N 38°01' E 023°32'0 0.0
2018-Jun-20 15:28N 38°01' E 023°32'0 0.0
2018-Jun-20 14:58N 38°01' E 023°32'0 0.0
2018-Jun-20 14:28N 38°01' E 023°32'0 0.0
2018-Jun-20 13:58N 38°01' E 023°32'0 0.1
2018-Jun-20 13:28N 38°01' E 023°32'0 0.0
2018-Jun-20 12:58N 38°01' E 023°32'0 0.0
2018-Jun-20 12:28N 38°01' E 023°32'0 0.0
2018-Jun-20 11:58N 38°01' E 023°32'0 0.0
2018-Jun-20 11:28N 38°01' E 023°32'0 0.0
2018-Jun-20 10:58N 38°01' E 023°32'0 0.1
2018-Jun-20 10:28N 38°01' E 023°32'0 0.0
2018-Jun-20 09:58N 38°01' E 023°32'0 0.0
2018-Jun-20 09:28N 38°01' E 023°32'0 0.1
2018-Jun-20 08:58N 38°01' E 023°32'0 0.0
2018-Jun-20 08:28N 38°01' E 023°32'0 0.0
2018-Jun-20 07:58N 38°01' E 023°32'0 0.0
2018-Jun-20 07:28N 38°01' E 023°32'0 0.0
2018-Jun-20 06:58N 38°01' E 023°32'0 0.0
2018-Jun-20 06:28N 38°01' E 023°32'0 0.0
2018-Jun-20 05:58N 38°01' E 023°32'0 0.0
2018-Jun-20 05:28N 38°01' E 023°32'0 0.0
2018-Jun-20 04:58N 38°01' E 023°32'0 0.0
2018-Jun-20 04:28N 38°01' E 023°32'0 0.0
2018-Jun-20 03:58N 38°01' E 023°32'0 0.0
2018-Jun-20 03:28N 38°01' E 023°32'0 0.0
2018-Jun-20 02:58N 38°01' E 023°32'0 0.0
2018-Jun-20 02:28N 38°01' E 023°32'0 0.0
2018-Jun-20 01:58N 38°01' E 023°32'0 0.0
2018-Jun-20 01:28N 38°01' E 023°32'0 0.0
2018-Jun-20 00:58N 38°01' E 023°32'0 0.0
2018-Jun-20 00:28N 38°01' E 023°32'0 0.0
2018-Jun-19 23:58N 38°01' E 023°32'0 0.0
2018-Jun-19 23:28N 38°01' E 023°32'0 0.0
2018-Jun-19 22:58N 38°01' E 023°32'0 0.0
2018-Jun-19 22:28N 38°01' E 023°32'0 0.0
2018-Jun-19 21:58N 38°01' E 023°32'0 0.0
2018-Jun-19 21:28N 38°01' E 023°32'0 0.0
2018-Jun-19 20:58N 38°01' E 023°32'0 0.0
2018-Jun-19 20:28N 38°01' E 023°32'0 0.0
2018-Jun-19 19:58N 38°01' E 023°32'0 0.0
2018-Jun-19 19:28N 38°01' E 023°32'0 0.0
2018-Jun-19 18:58N 38°01' E 023°32'0 0.0
2018-Jun-19 18:28N 38°01' E 023°32'0 0.0
2018-Jun-19 17:58N 38°01' E 023°32'0 0.0
2018-Jun-19 17:28N 38°01' E 023°32'0 0.0
2018-Jun-19 16:58N 38°01' E 023°32'0 0.0
2018-Jun-19 16:28N 38°01' E 023°32'0 0.0
2018-Jun-19 15:58N 38°01' E 023°32'0 0.1
2018-Jun-19 15:28N 38°01' E 023°32'0 0.1
2018-Jun-19 14:58N 38°01' E 023°32'0 0.0
2018-Jun-19 14:28N 38°01' E 023°32'0 0.0
2018-Jun-19 13:58N 38°01' E 023°32'0 0.0
2018-Jun-19 13:28N 38°01' E 023°32'0 0.0
2018-Jun-19 12:58N 38°01' E 023°32'0 0.0
2018-Jun-19 12:28N 38°01' E 023°32'0 0.0
2018-Jun-19 11:58N 38°01' E 023°32'0 0.0
2018-Jun-19 11:28N 38°01' E 023°32'0 0.0
2018-Jun-19 10:58N 38°01' E 023°32'0 0.0
2018-Jun-19 10:28N 38°01' E 023°32'0 0.0
2018-Jun-19 09:58N 38°01' E 023°32'0 0.0
2018-Jun-19 09:28N 38°01' E 023°32'0 0.0
2018-Jun-19 08:58N 38°01' E 023°32'0 0.0
2018-Jun-19 08:28N 38°01' E 023°32'0 0.0
2018-Jun-19 07:58N 38°01' E 023°32'0 0.0
2018-Jun-19 07:28N 38°01' E 023°32'0 0.0
2018-Jun-19 06:58N 38°01' E 023°32'0 0.0
2018-Jun-19 06:28N 38°01' E 023°32'0 0.0
2018-Jun-19 05:58N 38°01' E 023°32'0 0.0
2018-Jun-19 05:28N 38°01' E 023°32'0 0.0
2018-Jun-19 04:58N 38°01' E 023°32'0 0.0
2018-Jun-19 04:28N 38°01' E 023°32'0 0.0
2018-Jun-19 03:58N 38°01' E 023°32'0 0.0
2018-Jun-19 03:28N 38°01' E 023°32'0 0.0
2018-Jun-19 02:58N 38°01' E 023°32'0 0.0
2018-Jun-19 02:28N 38°01' E 023°32'0 0.0
2018-Jun-19 01:58N 38°01' E 023°32'0 0.1
2018-Jun-19 01:28N 38°01' E 023°32'0 0.0
2018-Jun-19 00:58N 38°01' E 023°32'0 0.0
2018-Jun-19 00:28N 38°01' E 023°32'0 0.0
2018-Jun-18 23:58N 38°01' E 023°32'0 0.0
2018-Jun-18 23:28N 38°01' E 023°32'0 0.0
2018-Jun-18 22:58N 38°01' E 023°32'0 0.1
2018-Jun-18 22:28N 38°01' E 023°32'0 0.0
2018-Jun-18 21:58N 38°01' E 023°32'0 0.0
2018-Jun-18 21:28N 38°01' E 023°32'0 0.0
2018-Jun-18 20:58N 38°01' E 023°32'0 0.0
2018-Jun-18 20:28N 38°01' E 023°32'0 0.0
2018-Jun-18 19:58N 38°01' E 023°32'0 0.0
2018-Jun-18 19:28N 38°01' E 023°32'0 0.0
2018-Jun-18 18:58N 38°01' E 023°32'0 0.0
2018-Jun-18 18:28N 38°01' E 023°32'0 0.0
2018-Jun-18 17:58N 38°01' E 023°32'0 0.0
2018-Jun-18 17:28N 38°01' E 023°32'0 0.0
2018-Jun-18 16:58N 38°01' E 023°32'0 0.0
2018-Jun-18 16:28N 38°01' E 023°32'0 0.0
2018-Jun-18 15:58N 38°01' E 023°32'0 0.0
2018-Jun-18 15:28N 38°01' E 023°32'0 0.0
2018-Jun-18 14:58N 38°01' E 023°32'0 0.1
2018-Jun-18 14:28N 38°01' E 023°32'0 0.1
2018-Jun-18 13:58N 38°01' E 023°32'0 0.0
2018-Jun-18 13:28N 38°01' E 023°32'0 0.0
2018-Jun-18 12:58N 38°01' E 023°32'0 0.2
2018-Jun-18 12:28N 38°01' E 023°32'0 0.0
2018-Jun-18 11:58N 38°01' E 023°32'0 0.0
2018-Jun-18 11:25N 38°01' E 023°32'0 0.0
2018-Jun-18 10:58N 38°01' E 023°32'0 0.1
2018-Jun-18 10:28N 38°01' E 023°32'0 0.1
2018-Jun-18 09:58N 38°01' E 023°32'0 0.3
2018-Jun-18 09:30N 38°01' E 023°32'4 7.5
2018-Jun-18 09:00N 37°58' E 023°33'4 8.6
2018-Jun-18 08:30N 37°54' E 023°37'3 6.7
2018-Jun-18 08:00N 37°51' E 023°39'5 9.1
2018-Jun-18 07:30N 37°47' E 023°41'5 9.3
2018-Jun-18 07:00N 37°43' E 023°44'6 9.3
2018-Jun-18 06:20N 37°38' E 023°48'  
2018-Jun-13 20:05N 37°05' E 002°44'110.8
2018-Jun-13 20:00N 37°05' E 002°43'6811.4
2018-Jun-13 14:01N 36°50' E 001°19'011.7
2018-Jun-13 14:00N 36°50' E 001°19'1411.7
2018-Jun-13 12:47N 36°47' E 001°01'7611.2
2018-Jun-13 06:03N 36°32' W 000°31'710.7
2018-Jun-13 05:27N 36°30' W 000°39'511.3
2018-Jun-13 04:59N 36°29' W 000°45'  

Dump ship's entire track history